Time;durP1;ratioP1;P1;durP2;ratioP2;P2;SDS_P1;SDS_P2;PMS_P1;PMS_P2;Temp;Humidity;BMP_temperature;BMP_pressure;BME280_temperature;BME280_humidity;BME280_pressure;Samples;Min_cycle;Max_cycle;Signal;HPM_P1;HPM_P2
2023/01/12 00:02:04;;;;;;;1999.90;999.90;;;9.80;99.90;;;;;;5034190;28;20777;-68
2023/01/12 00:04:30;;;;;;;1999.90;999.90;;;9.80;99.90;;;;;;5034134;28;20840;-67
2023/01/12 00:06:56;;;;;;;1999.90;999.90;;;9.80;99.90;;;;;;5033837;28;20443;-68
2023/01/12 00:09:22;;;;;;;1999.90;999.90;;;9.70;99.90;;;;;;5033690;28;20274;-69
2023/01/12 00:11:47;;;;;;;1999.90;999.90;;;9.60;1.00;;;;;;5033926;28;20959;-68
2023/01/12 00:14:13;;;;;;;1999.90;999.90;;;9.60;1.00;;;;;;5033948;28;20563;-68
2023/01/12 00:16:42;;;;;;;1999.90;999.90;;;9.60;1.00;;;;;;5033815;28;20179;-68
2023/01/12 00:19:15;;;;;;;1999.90;999.90;;;9.60;1.00;;;;;;5033338;28;20491;-68
2023/01/12 00:21:55;;;;;;;1999.90;999.90;;;9.60;1.00;;;;;;5033735;28;20413;-67
2023/01/12 00:24:24;;;;;;;1999.90;999.90;;;9.60;1.00;;;;;;5033664;28;20421;-68
2023/01/12 00:26:51;;;;;;;1999.90;999.90;;;9.60;1.00;;;;;;5033547;28;20401;-68
2023/01/12 00:29:17;;;;;;;1999.90;999.90;;;9.60;1.00;;;;;;5033311;28;20442;-69
2023/01/12 00:31:43;;;;;;;1999.90;999.90;;;9.60;1.00;;;;;;5033608;28;20957;-68
2023/01/12 00:34:09;;;;;;;1999.90;999.90;;;9.60;1.00;;;;;;5033438;28;20444;-68
2023/01/12 00:36:34;;;;;;;1999.90;999.90;;;9.60;1.00;;;;;;5033369;28;20438;-67
2023/01/12 00:39:00;;;;;;;1999.90;999.90;;;9.50;1.00;;;;;;5033115;28;20716;-69
2023/01/12 00:46:54;;;;;;;1999.90;999.90;;;9.70;1.00;;;;;;5033208;28;20507;-68
2023/01/12 00:49:20;;;;;;;1999.90;999.90;;;9.60;1.00;;;;;;5033087;28;20890;-68
2023/01/12 00:51:45;;;;;;;1999.90;999.90;;;9.60;1.00;;;;;;5033151;28;20166;-68
2023/01/12 00:54:11;;;;;;;1999.90;999.90;;;9.50;1.00;;;;;;5033111;28;20609;-68
2023/01/12 00:56:37;;;;;;;1999.90;999.90;;;9.40;1.00;;;;;;5032908;28;20257;-69
2023/01/12 00:59:04;;;;;;;1999.90;999.90;;;9.50;1.00;;;;;;5032716;28;20209;-68
2023/01/12 01:01:31;;;;;;;1999.90;999.90;;;9.50;1.00;;;;;;5033027;28;20402;-68
2023/01/12 01:03:56;;;;;;;1999.90;999.90;;;9.40;1.00;;;;;;5032922;28;20401;-69
2023/01/12 01:06:22;;;;;;;1999.90;999.90;;;9.40;1.00;;;;;;5032786;28;20946;-68
2023/01/12 01:08:49;;;;;;;1999.90;999.90;;;9.40;1.00;;;;;;5032593;28;20636;-68
2023/01/12 01:11:15;;;;;;;1999.90;999.90;;;9.40;1.00;;;;;;5032832;28;20408;-68
2023/01/12 01:13:42;;;;;;;1999.90;999.90;;;9.70;1.00;;;;;;5032700;28;20439;-68
2023/01/12 01:16:10;;;;;;;1999.90;999.90;;;9.50;1.00;;;;;;5032602;28;20205;-68
2023/01/12 01:18:36;;;;;;;1999.90;999.90;;;9.50;1.00;;;;;;5032201;28;20460;-70
2023/01/12 01:21:03;;;;;;;1999.90;999.90;;;9.50;1.00;;;;;;5032562;28;20413;-69
2023/01/12 01:23:31;;;;;;;1999.90;999.90;;;9.50;1.00;;;;;;5032605;28;21107;-70
2023/01/12 01:26:05;;;;;;;1999.90;999.90;;;9.50;1.00;;;;;;5032443;28;20408;-69
2023/01/12 01:28:34;;;;;;;1999.90;999.90;;;9.40;1.00;;;;;;5032540;28;20796;-69
2023/01/12 01:31:08;;;;;;;1999.90;999.90;;;9.50;1.00;;;;;;5032477;28;20417;-71
2023/01/12 01:33:33;;;;;;;1999.90;999.90;;;9.60;1.00;;;;;;5032402;28;20438;-69
2023/01/12 01:36:00;;;;;;;1999.90;999.90;;;9.60;1.00;;;;;;5032285;28;20456;-68
2023/01/12 01:38:26;;;;;;;1999.90;999.90;;;9.60;1.00;;;;;;5032024;28;20289;-70
2023/01/12 01:40:52;;;;;;;1999.90;999.90;;;9.60;1.00;;;;;;5032288;28;20407;-70
2023/01/12 01:43:20;;;;;;;1999.90;999.90;;;9.60;1.00;;;;;;5032336;28;20819;-71
2023/01/12 01:46:10;;;;;;;1999.90;999.90;;;9.60;1.00;;;;;;5032366;28;20414;-68
2023/01/12 01:48:38;;;;;;;1999.90;999.90;;;9.60;1.00;;;;;;5031989;28;20437;-69
2023/01/12 01:51:10;;;;;;;1999.90;999.90;;;9.70;1.00;;;;;;5032096;28;20417;-69
2023/01/12 01:53:39;;;;;;;1999.90;999.90;;;9.70;1.00;;;;;;5032285;28;20402;-69
2023/01/12 01:56:12;;;;;;;1999.90;999.90;;;9.70;1.00;;;;;;5032018;28;20413;-70
2023/01/12 01:58:43;;;;;;;1999.90;999.90;;;9.70;1.00;;;;;;5031940;28;20543;-70
2023/01/12 02:01:10;;;;;;;1999.90;999.90;;;9.80;1.00;;;;;;5032252;28;20441;-69
2023/01/12 02:03:36;;;;;;;1999.90;999.90;;;9.80;1.00;;;;;;5032044;28;20424;-69
2023/01/12 02:06:03;;;;;;;1999.90;999.90;;;9.80;1.00;;;;;;5031838;28;20536;-68
2023/01/12 02:08:44;;;;;;;1999.90;999.90;;;9.80;1.00;;;;;;5031814;28;20911;-70
2023/01/12 02:16:19;;;;;;;1999.90;999.90;;;9.80;1.00;;;;;;5031969;28;20475;-70
2023/01/12 02:17:10;;;;;;;1999.90;999.90;;;9.90;1.00;;;;;;5031792;28;20428;-70
2023/01/12 02:20:08;;;;;;;1999.90;999.90;;;10.00;1.00;;;;;;5031405;28;20512;-70
2023/01/12 02:23:18;;;;;;;1999.90;999.90;;;10.00;1.00;;;;;;5035606;28;20441;-69
2023/01/12 02:25:59;;;;;;;1999.90;999.90;;;10.00;1.00;;;;;;4994223;28;20422;-69
2023/01/12 02:29:12;;;;;;;1999.90;999.90;;;10.00;1.00;;;;;;4993965;28;20442;-68
2023/01/12 02:31:59;;;;;;;1999.90;999.90;;;10.00;1.00;;;;;;4979636;28;20427;-69
2023/01/12 02:34:41;;;;;;;1999.90;999.90;;;10.00;1.00;;;;;;5035746;28;20782;-69
2023/01/12 02:37:12;;;;;;;1999.90;999.90;;;10.00;1.00;;;;;;5035594;28;20800;-69
2023/01/12 02:39:49;;;;;;;1999.90;999.90;;;10.00;1.00;;;;;;5035409;28;20453;-69
2023/01/12 02:45:24;;;;;;;1999.90;999.90;;;10.00;1.00;;;;;;5035639;28;20488;-69
2023/01/12 02:48:00;;;;;;;1999.90;999.90;;;10.00;1.00;;;;;;5035726;28;20474;-69
2023/01/12 02:50:32;;;;;;;1999.90;999.90;;;10.00;1.00;;;;;;5035238;28;20780;-70
2023/01/12 02:53:06;;;;;;;1999.90;999.90;;;10.00;1.00;;;;;;5035440;28;20414;-70
2023/01/12 02:55:33;;;;;;;1999.90;999.90;;;10.00;1.00;;;;;;5035388;28;20412;-70
2023/01/12 02:58:01;;;;;;;1999.90;999.90;;;9.90;1.00;;;;;;5035066;28;20401;-70
2023/01/12 03:00:28;;;;;;;1999.90;999.90;;;9.70;1.00;;;;;;5035088;28;20413;-70
2023/01/12 03:02:53;;;;;;;1999.90;999.90;;;9.70;1.00;;;;;;5035188;28;20603;-70
2023/01/12 03:05:19;;;;;;;1999.90;999.90;;;9.60;1.00;;;;;;5035162;28;20455;-71
2023/01/12 03:07:50;;;;;;;1999.90;999.90;;;9.50;1.00;;;;;;5035098;28;20661;-69
2023/01/12 03:10:22;;;;;;;1999.90;999.90;;;9.50;1.00;;;;;;5034781;28;20722;-70
2023/01/12 03:12:50;;;;;;;1999.90;999.90;;;9.30;9.50;;;;;;5035185;28;20536;-70
2023/01/12 03:15:16;;;;;;;1999.90;999.90;;;9.30;47.90;;;;;;5035047;28;20494;-69
2023/01/12 03:17:52;;;;;;;1999.90;999.90;;;9.10;90.10;;;;;;5035843;28;20417;-69
2023/01/12 03:20:29;;;;;;;1999.90;999.90;;;9.10;92.70;;;;;;5036017;28;20452;-68
2023/01/12 03:23:01;;;;;;;1999.90;999.90;;;9.00;99.90;;;;;;5037617;28;20859;-70
2023/01/12 03:25:31;;;;;;;1999.90;999.90;;;9.00;99.90;;;;;;5037278;28;20433;-70
2023/01/12 03:28:01;;;;;;;1999.90;999.90;;;9.10;99.90;;;;;;5035667;28;20417;-70
2023/01/12 03:30:37;;;;;;;1999.90;999.90;;;9.00;99.90;;;;;;5035841;28;20393;-70
2023/01/12 03:33:04;;;;;;;1999.90;999.90;;;9.00;99.90;;;;;;5035481;28;20403;-68
2023/01/12 03:35:34;;;;;;;1999.90;999.90;;;9.10;99.90;;;;;;5037917;28;20407;-69
2023/01/12 03:38:34;;;;;;;1999.90;999.90;;;9.10;99.90;;;;;;5038420;28;20405;-69
2023/01/12 03:41:07;;;;;;;1999.90;999.90;;;9.00;99.90;;;;;;5039549;28;20404;-68
2023/01/12 03:43:44;;;;;;;1999.90;999.90;;;9.00;99.90;;;;;;5037231;28;20478;-69
2023/01/12 03:46:21;;;;;;;1999.90;999.90;;;9.00;99.90;;;;;;5034956;28;20410;-68
2023/01/12 03:48:51;;;;;;;1999.90;999.90;;;9.10;99.90;;;;;;5034572;28;20857;-68
2023/01/12 03:51:24;;;;;;;1999.90;999.90;;;9.10;99.90;;;;;;5034990;28;20437;-68
2023/01/12 03:53:51;;;;;;;1999.90;999.90;;;9.10;99.90;;;;;;5035407;28;20412;-68
2023/01/12 03:56:19;;;;;;;1999.90;999.90;;;9.00;99.90;;;;;;5036266;28;20408;-68
2023/01/12 03:58:46;;;;;;;1999.90;999.90;;;9.20;93.90;;;;;;5037390;28;20454;-68
2023/01/12 04:01:12;;;;;;;1999.90;999.90;;;9.20;78.10;;;;;;5037031;28;20411;-68
2023/01/12 04:03:38;;;;;;;1999.90;999.90;;;9.40;62.60;;;;;;5036738;28;20964;-68
2023/01/12 04:06:03;;;;;;;1999.90;999.90;;;9.40;53.90;;;;;;5035802;28;20449;-68
2023/01/12 04:08:29;;;;;;;1999.90;999.90;;;9.50;54.60;;;;;;5036268;28;20286;-68
2023/01/12 04:10:55;;;;;;;1999.90;999.90;;;9.50;52.50;;;;;;5036236;28;20181;-68
2023/01/12 04:13:21;;;;;;;1999.90;999.90;;;9.40;57.40;;;;;;5036323;28;20915;-68
2023/01/12 04:15:47;;;;;;;1999.90;999.90;;;9.40;53.70;;;;;;5036448;28;20436;-68
2023/01/12 04:18:13;;;;;;;1999.90;999.90;;;9.40;49.90;;;;;;5035316;28;21195;-68
2023/01/12 04:20:39;;;;;;;1999.90;999.90;;;9.40;49.20;;;;;;5036568;28;20394;-68
2023/01/12 04:23:06;;;;;;;1999.90;999.90;;;9.50;37.70;;;;;;5035938;28;20175;-68
2023/01/12 04:25:32;;;;;;;1999.90;999.90;;;9.50;39.70;;;;;;5035225;28;20404;-68
2023/01/12 04:28:01;;;;;;;1999.90;999.90;;;9.70;61.50;;;;;;5033447;28;20409;-68
2023/01/12 04:30:29;;;;;;;1999.90;999.90;;;9.50;41.20;;;;;;5033434;28;20423;-68
2023/01/12 04:32:55;;;;;;;1999.90;999.90;;;9.50;51.60;;;;;;5033622;28;20449;-68
2023/01/12 04:35:23;;;;;;;1999.90;999.90;;;9.50;56.40;;;;;;5033554;28;20413;-68
2023/01/12 04:37:49;;;;;;;1999.90;999.90;;;9.40;61.80;;;;;;5033293;28;20427;-68
2023/01/12 04:40:15;;;;;;;1999.90;999.90;;;9.40;71.00;;;;;;5033063;28;20454;-68
2023/01/12 04:42:59;;;;;;;1999.90;999.90;;;9.50;82.40;;;;;;5033834;28;20440;-69
2023/01/12 04:45:25;;;;;;;1999.90;999.90;;;9.40;85.70;;;;;;5033585;28;20454;-69
2023/01/12 04:47:51;;;;;;;1999.90;999.90;;;9.40;96.80;;;;;;5033818;28;20408;-69
2023/01/12 04:50:16;;;;;;;1999.90;999.90;;;9.30;99.90;;;;;;5034969;28;20829;-68
2023/01/12 04:52:42;;;;;;;1999.90;999.90;;;9.30;99.90;;;;;;5036094;28;20208;-69
2023/01/12 04:55:08;;;;;;;1999.90;999.90;;;9.20;99.90;;;;;;5034694;28;20230;-69
2023/01/12 04:57:34;;;;;;;1999.90;999.90;;;9.20;99.90;;;;;;5036067;28;20208;-70
2023/01/12 04:59:59;;;;;;;1999.90;999.90;;;9.20;99.90;;;;;;5037500;28;20205;-69
2023/01/12 05:02:26;;;;;;;1999.90;999.90;;;9.20;99.90;;;;;;5036822;28;20409;-70
2023/01/12 05:04:52;;;;;;;1999.90;999.90;;;9.10;99.90;;;;;;5033760;28;20178;-69
2023/01/12 05:07:18;;;;;;;1999.90;999.90;;;9.10;99.90;;;;;;5034847;28;20405;-69
2023/01/12 05:12:27;;;;;;;1999.90;999.90;;;9.00;99.90;;;;;;5034683;28;20272;-70
2023/01/12 05:14:53;;;;;;;1999.90;999.90;;;9.10;99.90;;;;;;5035120;28;20870;-69
2023/01/12 05:17:19;;;;;;;1999.90;999.90;;;9.20;99.90;;;;;;5034872;28;20248;-69
2023/01/12 05:19:44;;;;;;;1999.90;999.90;;;9.10;99.90;;;;;;5035530;28;20210;-69
2023/01/12 05:22:10;;;;;;;1999.90;999.90;;;9.00;99.90;;;;;;5032757;28;20413;-69
2023/01/12 05:24:36;;;;;;;1999.90;999.90;;;9.00;99.90;;;;;;5033829;28;20641;-69
2023/01/12 05:27:01;;;;;;;1999.90;999.90;;;9.00;99.90;;;;;;5036436;28;20197;-70
2023/01/12 05:29:27;;;;;;;1999.90;999.90;;;8.90;99.90;;;;;;5034032;28;20193;-69
2023/01/12 05:31:53;;;;;;;1999.90;999.90;;;8.80;99.90;;;;;;5033915;28;20643;-69
2023/01/12 05:34:19;;;;;;;1999.90;999.90;;;8.70;99.90;;;;;;5033081;28;20407;-70
2023/01/12 05:36:45;;;;;;;1999.90;999.90;;;8.80;99.90;;;;;;5033096;28;21160;-70
2023/01/12 05:39:11;;;;;;;1999.90;999.90;;;8.70;99.90;;;;;;5032817;28;20575;-69
2023/01/12 05:41:36;;;;;;;1999.90;999.90;;;8.70;99.90;;;;;;5032616;28;20445;-71
2023/01/12 05:44:02;;;;;;;1999.90;999.90;;;8.70;99.90;;;;;;5033088;28;20243;-70
2023/01/12 05:46:30;;;;;;;1999.90;999.90;;;8.60;99.90;;;;;;5032867;28;20547;-70
2023/01/12 05:48:56;;;;;;;1999.90;999.90;;;8.70;99.90;;;;;;5032419;28;20283;-69
2023/01/12 05:51:25;;;;;;;1999.90;999.90;;;8.80;99.90;;;;;;5032308;28;20414;-70
2023/01/12 05:53:50;;;;;;;1999.90;999.90;;;8.60;99.90;;;;;;5032271;28;20858;-70
2023/01/12 05:56:20;;;;;;;1999.90;999.90;;;8.70;99.90;;;;;;5031440;28;20443;-70
2023/01/12 05:58:51;;;;;;;1999.90;999.90;;;8.70;99.90;;;;;;5031783;28;20204;-70
2023/01/12 06:01:17;;;;;;;1999.90;999.90;;;8.70;99.90;;;;;;5031944;28;20807;-70
2023/01/12 06:03:46;;;;;;;1999.90;999.90;;;8.70;99.90;;;;;;5032040;28;20407;-71
2023/01/12 06:06:12;;;;;;;1999.90;999.90;;;8.70;99.90;;;;;;5032056;28;20780;-69
2023/01/12 06:08:37;;;;;;;1999.90;999.90;;;8.70;99.90;;;;;;5032418;28;20433;-70
2023/01/12 06:11:03;;;;;;;1999.90;999.90;;;8.70;99.90;;;;;;5032093;28;20939;-69
2023/01/12 06:16:13;;;;;;;1999.90;999.90;;;8.90;99.90;;;;;;5033957;28;20465;-70
2023/01/12 06:18:39;;;;;;;1999.90;999.90;;;8.90;99.90;;;;;;5033392;28;20479;-70
2023/01/12 06:21:07;;;;;;;1999.90;999.90;;;8.90;99.90;;;;;;5034060;28;20181;-70
2023/01/12 06:23:32;;;;;;;1999.90;999.90;;;8.90;99.90;;;;;;5034741;28;20432;-70
2023/01/12 06:26:03;;;;;;;1999.90;999.90;;;8.80;99.90;;;;;;5034762;28;20874;-70
2023/01/12 06:28:29;;;;;;;1999.90;999.90;;;8.90;99.90;;;;;;5034418;28;20192;-70
2023/01/12 06:30:59;;;;;;;1999.90;999.90;;;8.90;99.90;;;;;;5034219;28;20446;-70
2023/01/12 06:33:25;;;;;;;1999.90;999.90;;;9.00;99.90;;;;;;5034057;28;20409;-70
2023/01/12 06:35:52;;;;;;;1999.90;999.90;;;9.00;99.90;;;;;;5034878;28;20423;-70
2023/01/12 06:38:18;;;;;;;1999.90;999.90;;;9.00;99.90;;;;;;5033849;28;20464;-70
2023/01/12 06:40:44;;;;;;;1999.90;999.90;;;9.00;99.90;;;;;;5034752;28;20409;-70
2023/01/12 06:43:09;;;;;;;1999.90;999.90;;;9.00;99.90;;;;;;5034664;28;20432;-70
2023/01/12 06:45:35;;;;;;;1999.90;999.90;;;9.00;99.90;;;;;;5034574;28;20178;-70
2023/01/12 06:48:00;;;;;;;1999.90;999.90;;;8.90;99.90;;;;;;5034173;28;20210;-70
2023/01/12 06:50:26;;;;;;;1999.90;999.90;;;9.10;99.90;;;;;;5034407;28;20166;-70
2023/01/12 06:52:51;;;;;;;1999.90;999.90;;;9.20;99.90;;;;;;5034930;28;20175;-70
2023/01/12 06:55:17;;;;;;;1999.90;999.90;;;9.20;99.90;;;;;;5033616;28;20538;-70
2023/01/12 06:57:43;;;;;;;1999.90;999.90;;;9.30;99.90;;;;;;5031490;28;20252;-70
2023/01/12 07:00:12;;;;;;;1999.90;999.90;;;9.10;99.90;;;;;;5031286;28;20202;-70
2023/01/12 07:02:37;;;;;;;1999.90;999.90;;;9.20;99.90;;;;;;5031802;28;20175;-70
2023/01/12 07:05:03;;;;;;;1999.90;999.90;;;9.10;99.90;;;;;;5031530;28;20968;-71
2023/01/12 07:07:29;;;;;;;1999.90;999.90;;;9.20;99.90;;;;;;5033408;28;20235;-71
2023/01/12 07:09:55;;;;;;;1999.90;999.90;;;9.20;99.90;;;;;;5034932;28;20430;-71
2023/01/12 07:12:20;;;;;;;1999.90;999.90;;;9.20;99.90;;;;;;5035129;28;20636;-71
2023/01/12 07:14:46;;;;;;;1999.90;999.90;;;9.20;99.90;;;;;;5035024;28;20200;-72
2023/01/12 07:17:12;;;;;;;1999.90;999.90;;;9.20;99.90;;;;;;5034930;28;20317;-72
2023/01/12 07:19:37;;;;;;;1999.90;999.90;;;9.20;99.90;;;;;;5034570;28;20215;-71
2023/01/12 07:22:03;;;;;;;1999.90;999.90;;;9.20;99.90;;;;;;5034986;28;20182;-70
2023/01/12 07:24:28;;;;;;;1999.90;999.90;;;9.20;99.90;;;;;;5030423;28;20184;-73
2023/01/12 07:26:56;;;;;;;1999.90;999.90;;;9.30;99.90;;;;;;5031810;28;20188;-72
2023/01/12 07:29:22;;;;;;;1999.90;999.90;;;9.30;99.90;;;;;;5033518;28;20201;-73
2023/01/12 07:31:48;;;;;;;1999.90;999.90;;;9.40;99.90;;;;;;5033729;28;20416;-73
2023/01/12 07:34:14;;;;;;;1999.90;999.90;;;9.50;99.90;;;;;;5026608;28;20170;-73
2023/01/12 07:36:40;;;;;;;1999.90;999.90;;;9.20;99.90;;;;;;5033937;28;20180;-73
2023/01/12 07:39:07;;;;;;;1999.90;999.90;;;9.40;99.90;;;;;;5033447;28;20205;-73
2023/01/12 07:44:17;;;;;;;1999.90;999.90;;;9.30;99.90;;;;;;5027188;28;20495;-73
2023/01/12 07:46:43;;;;;;;1999.90;999.90;;;9.50;99.90;;;;;;5039304;28;20866;-73
2023/01/12 07:49:08;;;;;;;1999.90;999.90;;;9.40;99.90;;;;;;5040357;28;20194;-73
2023/01/12 07:51:34;;;;;;;1999.90;999.90;;;9.50;99.90;;;;;;5039364;28;20548;-73
2023/01/12 07:53:59;;;;;;;1999.90;999.90;;;9.40;99.90;;;;;;5038052;28;20186;-73
2023/01/12 07:56:25;;;;;;;1999.90;999.90;;;9.60;99.90;;;;;;5037309;28;20178;-73
2023/01/12 07:58:50;;;;;;;1999.90;999.90;;;9.30;99.90;;;;;;5034518;28;20551;-73
2023/01/12 08:01:16;;;;;;;1999.90;999.90;;;9.80;99.90;;;;;;5034381;28;20202;-73
2023/01/12 08:03:42;;;;;;;1999.90;999.90;;;9.30;99.90;;;;;;5034583;28;20170;-73
2023/01/12 08:06:07;;;;;;;1999.90;999.90;;;9.60;99.90;;;;;;5035280;28;20693;-73
2023/01/12 08:08:33;;;;;;;1999.90;999.90;;;9.40;99.90;;;;;;5034708;28;20242;-73
2023/01/12 08:11:08;;;;;;;1999.90;999.90;;;9.70;99.90;;;;;;5034819;28;20179;-73
2023/01/12 08:13:34;;;;;;;1999.90;999.90;;;9.40;99.90;;;;;;5034737;28;20426;-73
2023/01/12 08:16:05;;;;;;;1999.90;999.90;;;9.50;99.90;;;;;;5034815;28;20478;-73
2023/01/12 08:18:36;;;;;;;1999.90;999.90;;;9.40;99.90;;;;;;5033551;28;20495;-73
2023/01/12 08:21:06;;;;;;;1999.90;999.90;;;9.50;99.90;;;;;;5035245;28;20456;-73
2023/01/12 08:23:38;;;;;;;1999.90;999.90;;;9.40;99.90;;;;;;5036063;28;20409;-73
2023/01/12 08:26:10;;;;;;;1999.90;999.90;;;9.40;99.90;;;;;;5036208;28;20505;-73
2023/01/12 08:28:51;;;;;;;1999.90;999.90;;;9.40;99.90;;;;;;5035659;28;20428;-73
2023/01/12 08:31:20;;;;;;;1999.90;999.90;;;9.40;99.90;;;;;;5036048;28;20420;-73
2023/01/12 08:33:45;;;;;;;1999.90;999.90;;;9.50;99.90;;;;;;5036930;28;20931;-73
2023/01/12 08:36:13;;;;;;;1999.90;999.90;;;9.60;99.90;;;;;;5035774;28;20420;-72
2023/01/12 08:38:39;;;;;;;1999.90;999.90;;;9.80;99.90;;;;;;5036263;28;20197;-72
2023/01/12 08:44:01;;;;;;;1999.90;999.90;;;9.60;99.90;;;;;;5036111;28;20286;-73
2023/01/12 08:46:36;;;;;;;1999.90;999.90;;;9.60;99.90;;;;;;5035912;28;20382;-72
2023/01/12 08:49:07;;;;;;;1999.90;999.90;;;9.70;99.90;;;;;;5035754;28;21017;-73
2023/01/12 08:51:33;;;;;;;1999.90;999.90;;;9.50;99.90;;;;;;5036042;28;20406;-73
2023/01/12 08:54:00;;;;;;;1999.90;999.90;;;9.70;99.90;;;;;;5034606;28;20444;-73
2023/01/12 08:56:25;;;;;;;1999.90;999.90;;;9.70;99.90;;;;;;5035533;28;20430;-72
2023/01/12 08:58:51;;;;;;;1999.90;999.90;;;9.60;99.90;;;;;;5035499;28;20461;-72
2023/01/12 09:01:18;;;;;;;1999.90;999.90;;;9.90;99.90;;;;;;5036175;28;20174;-73
2023/01/12 09:03:45;;;;;;;1999.90;999.90;;;9.70;99.90;;;;;;5035679;28;20274;-73
2023/01/12 09:06:16;;;;;;;1999.90;999.90;;;9.60;99.90;;;;;;5033775;28;20449;-72
2023/01/12 09:08:43;;;;;;;1999.90;999.90;;;9.70;99.90;;;;;;5032662;28;20431;-72
2023/01/12 09:11:09;;;;;;;1999.90;999.90;;;9.70;99.90;;;;;;5033010;28;20422;-73
2023/01/12 09:13:35;;;;;;;1999.90;999.90;;;9.70;99.90;;;;;;5032888;28;20473;-73
2023/01/12 09:16:07;;;;;;;1999.90;999.90;;;9.90;99.90;;;;;;5032555;28;20400;-72
2023/01/12 09:18:33;;;;;;;1999.90;999.90;;;9.70;99.90;;;;;;5032117;28;20454;-73
2023/01/12 09:21:01;;;;;;;1999.90;999.90;;;9.70;99.90;;;;;;5032370;28;20395;-73
2023/01/12 09:23:26;;;;;;;1999.90;999.90;;;9.60;99.90;;;;;;5032380;28;20876;-72
2023/01/12 09:25:52;;;;;;;1999.90;999.90;;;9.90;99.90;;;;;;5032223;28;20496;-72
2023/01/12 09:28:17;;;;;;;1999.90;999.90;;;9.60;99.90;;;;;;5032046;28;20254;-72
2023/01/12 09:30:43;;;;;;;1999.90;999.90;;;9.80;99.90;;;;;;5032988;28;20173;-72
2023/01/12 09:33:08;;;;;;;1999.90;999.90;;;9.80;99.90;;;;;;5035815;28;20693;-73
2023/01/12 09:35:34;;;;;;;1999.90;999.90;;;9.80;99.90;;;;;;5036649;28;20174;-72
2023/01/12 09:38:00;;;;;;;1999.90;999.90;;;9.70;99.90;;;;;;5029596;28;20188;-71
2023/01/12 09:40:25;;;;;;;1999.90;999.90;;;9.80;99.90;;;;;;5035073;28;20186;-72
2023/01/12 09:48:22;;;;;;;1999.90;999.90;;;9.90;99.90;;;;;;5015614;28;20434;-69
2023/01/12 09:50:57;;;;;;;1999.90;999.90;;;9.90;99.90;;;;;;5016319;28;20872;-70
2023/01/12 09:53:37;;;;;;;1999.90;999.90;;;10.20;99.90;;;;;;5016862;28;20414;-71
2023/01/12 09:56:05;;;;;;;1999.90;999.90;;;10.00;99.90;;;;;;5017573;28;20930;-70
2023/01/12 09:58:40;;;;;;;1999.90;999.90;;;10.00;99.90;;;;;;5017116;28;20459;-70
2023/01/12 10:01:12;;;;;;;1999.90;999.90;;;10.00;99.90;;;;;;5016436;28;20847;-69
2023/01/12 10:03:41;;;;;;;1999.90;999.90;;;10.00;99.90;;;;;;5017749;28;20447;-70
2023/01/12 10:06:15;;;;;;;1999.90;999.90;;;10.00;99.90;;;;;;5016800;28;20439;-71
2023/01/12 10:08:54;;;;;;;1999.90;999.90;;;10.00;99.90;;;;;;5012186;28;20469;-71
2023/01/12 10:11:28;;;;;;;1999.90;999.90;;;10.20;99.90;;;;;;5012981;28;20991;-71
2023/01/12 10:14:06;;;;;;;1999.90;999.90;;;10.10;99.90;;;;;;5012701;28;20426;-71
2023/01/12 10:17:02;;;;;;;1999.90;999.90;;;10.10;99.90;;;;;;5013137;28;20407;-72
2023/01/12 10:19:35;;;;;;;1999.90;999.90;;;10.10;99.90;;;;;;5010986;28;20459;-71
2023/01/12 10:22:35;;;;;;;1999.90;999.90;;;10.10;99.90;;;;;;5011960;28;20825;-71
2023/01/12 10:25:07;;;;;;;1999.90;999.90;;;10.20;99.90;;;;;;5009835;28;20510;-69
2023/01/12 10:27:39;;;;;;;1999.90;999.90;;;10.20;99.90;;;;;;5014504;28;20414;-70
2023/01/12 10:30:13;;;;;;;1999.90;999.90;;;10.20;99.90;;;;;;5010566;28;20451;-70
2023/01/12 10:32:39;;;;;;;1999.90;999.90;;;10.30;99.90;;;;;;5011126;28;20403;-71
2023/01/12 10:35:12;;;;;;;1999.90;999.90;;;10.30;99.90;;;;;;5011654;28;20923;-70
2023/01/12 10:37:55;;;;;;;1999.90;999.90;;;10.50;99.90;;;;;;5011543;28;20172;-70
2023/01/12 10:40:28;;;;;;;1999.90;999.90;;;10.50;99.90;;;;;;5010689;28;20473;-71
2023/01/12 10:43:18;;;;;;;1999.90;999.90;;;10.70;99.90;;;;;;5012408;28;20804;-71
2023/01/12 10:46:04;;;;;;;1999.90;999.90;;;10.80;99.90;;;;;;5014498;28;20764;-71
2023/01/12 10:48:31;;;;;;;1999.90;999.90;;;10.90;99.90;;;;;;5003643;28;20458;-71
2023/01/12 10:51:01;;;;;;;1999.90;999.90;;;10.90;99.90;;;;;;5014870;28;20411;-71
2023/01/12 10:53:43;;;;;;;1999.90;999.90;;;10.90;99.90;;;;;;5014438;28;20407;-71
2023/01/12 10:56:38;;;;;;;1999.90;999.90;;;11.00;99.90;;;;;;5015558;28;20400;-72
2023/01/12 10:59:12;;;;;;;1999.90;999.90;;;11.00;99.90;;;;;;5016048;28;20458;-71
2023/01/12 11:02:05;;;;;;;1999.90;999.90;;;11.00;99.90;;;;;;5015164;28;20491;-71
2023/01/12 11:04:46;;;;;;;1999.90;999.90;;;11.00;99.90;;;;;;5013765;28;20399;-71
2023/01/12 11:07:21;;;;;;;1999.90;999.90;;;11.00;99.90;;;;;;5013851;28;20410;-71
2023/01/12 11:09:48;;;;;;;1999.90;999.90;;;11.10;99.90;;;;;;5013852;28;20488;-70
2023/01/12 11:12:33;;;;;;;1999.90;999.90;;;11.20;99.90;;;;;;5013444;28;20416;-72
2023/01/12 11:15:00;;;;;;;1999.90;999.90;;;11.20;99.90;;;;;;5013829;28;20396;-71
2023/01/12 11:17:35;;;;;;;1999.90;999.90;;;11.30;99.90;;;;;;5013806;28;20486;-71
2023/01/12 11:20:12;;;;;;;1999.90;999.90;;;11.20;99.90;;;;;;5012365;28;20549;-71
2023/01/12 11:22:40;;;;;;;1999.90;999.90;;;11.30;99.90;;;;;;5011745;28;20424;-71
2023/01/12 11:25:12;;;;;;;1999.90;999.90;;;11.30;99.90;;;;;;5013611;28;20407;-71
2023/01/12 11:27:54;;;;;;;1999.90;999.90;;;11.40;99.90;;;;;;5013263;28;20807;-71
2023/01/12 11:30:45;;;;;;;1999.90;999.90;;;11.40;94.20;;;;;;5012658;28;20443;-71
2023/01/12 11:33:29;;;;;;;1999.90;999.90;;;11.40;97.10;;;;;;5012603;28;20518;-72
2023/01/12 11:36:03;;;;;;;1999.90;999.90;;;11.40;99.90;;;;;;5014082;28;20487;-71
2023/01/12 11:39:03;;;;;;;1999.90;999.90;;;11.40;99.90;;;;;;5027096;22;20576;-72
2023/01/12 11:44:41;;;;;;;1999.90;999.90;;;11.40;99.90;;;;;;5009308;28;20387;-73
2023/01/12 11:47:13;;;;;;;1999.90;999.90;;;11.30;99.90;;;;;;5013507;28;20394;-73
2023/01/12 11:49:58;;;;;;;1999.90;999.90;;;11.30;99.90;;;;;;5011694;28;20948;-72
2023/01/12 11:52:25;;;;;;;1999.90;999.90;;;11.30;99.90;;;;;;5014185;28;20491;-71
2023/01/12 11:54:51;;;;;;;1999.90;999.90;;;;;;;;;;5012527;28;20400;-70
2023/01/12 11:57:48;;;;;;;1999.90;999.90;;;11.30;99.90;;;;;;5013991;28;20407;-72
2023/01/12 12:00:44;;;;;;;1999.90;999.90;;;11.40;96.90;;;;;;5012958;28;20467;-72
2023/01/12 12:03:13;;;;;;;1999.90;999.90;;;11.40;92.70;;;;;;4996949;28;20770;-72
2023/01/12 12:06:00;;;;;;;1999.90;999.90;;;11.40;94.50;;;;;;5013837;28;20404;-71
2023/01/12 12:08:36;;;;;;;1999.90;999.90;;;11.30;99.90;;;;;;5012281;28;20502;-72
2023/01/12 12:11:13;;;;;;;1999.90;999.90;;;11.20;99.90;;;;;;5012981;28;20402;-71
2023/01/12 12:13:53;;;;;;;1999.90;999.90;;;11.10;99.90;;;;;;5013549;28;20403;-71
2023/01/12 12:17:06;;;;;;;1999.90;999.90;;;10.90;99.90;;;;;;5006913;28;20871;-71
2023/01/12 12:19:47;;;;;;;1999.90;999.90;;;10.80;99.90;;;;;;5004155;28;20458;-71
2023/01/12 12:22:47;;;;;;;1999.90;999.90;;;10.80;99.90;;;;;;5013102;28;20403;-71
2023/01/12 12:25:19;;;;;;;1999.90;999.90;;;10.70;99.90;;;;;;4983668;28;20447;-71
2023/01/12 12:27:48;;;;;;;1999.90;999.90;;;10.70;99.90;;;;;;5011187;28;20792;-71
2023/01/12 12:30:35;;;;;;;1999.90;999.90;;;10.60;99.90;;;;;;5005855;28;20411;-71
2023/01/12 12:33:15;;;;;;;1999.90;999.90;;;10.70;99.90;;;;;;5005620;28;20482;-71
2023/01/12 12:36:02;;;;;;;1999.90;999.90;;;10.60;99.90;;;;;;5011828;28;20853;-71
2023/01/12 12:38:54;;;;;;;1999.90;999.90;;;10.70;99.90;;;;;;5006703;28;20994;-71
2023/01/12 12:47:57;;;;;;;1999.90;999.90;;;10.40;99.90;;;;;;4961116;28;20418;-70
2023/01/12 12:50:31;;;;;;;1999.90;999.90;;;10.60;99.90;;;;;;5012481;28;20407;-71
2023/01/12 12:53:25;;;;;;;1999.90;999.90;;;10.60;99.90;;;;;;5011759;28;20427;-71
2023/01/12 12:55:52;;;;;;;1999.90;999.90;;;10.50;99.90;;;;;;5007243;28;20434;-70
2023/01/12 12:58:20;;;;;;;1999.90;999.90;;;10.50;99.90;;;;;;5011487;28;20530;-70
2023/01/12 13:00:48;;;;;;;1999.90;999.90;;;10.50;99.90;;;;;;5012357;28;20781;-70
2023/01/12 13:03:38;;;;;;;1999.90;999.90;;;10.50;99.90;;;;;;5012244;28;20458;-71
2023/01/12 13:06:15;;;;;;;1999.90;999.90;;;10.50;99.90;;;;;;5012122;28;20465;-71